Terminal Aerodrome Forecast
Issued by NWS Central Illinois

Home | Current Version | Previous Version | Text Only | Print | Product List | Glossary On
Versions: 1 2 3 4 5 6 7 8 9 10 11 12 13 14
000
FTUS43 KILX 312300
TAFSPI
TAF
KSPI 312336Z 0100/0124 15008KT 6SM BR VCSH OVC035
     FM010800 12010KT 2SM -RASN BR OVC008
     FM011400 10012KT 1SM -SN OVC004
     FM012000 02012G22KT 2SM -SN OVC008=

USA.gov is the U.S. government's official web portal to all federal, state and local government web resources and services.